Search for airport 
image banner adimage banner adimage banner ad
image banner ad

PN50 - Skyline Airstrip

Located in Shoemakersville, United States

ICAO - PN50, IATA -

Data provided by Airmate  

General information

Coordinates: N40°30'25" W75°56'30"
Elevation is 580 feet MSL.
Magnetic variation is -12° East
View others Airports in Pennsylvania

Operational data

Special qualification required
Current time UTC:
Current local time:
METAR: KRDG 091554Z 20004KT 10SM BKN075 OVC085 11/03 A3007 RMK AO2 SLP190 T01110033 $
TAF: KRDG 091120Z 0912/1012 VRB02KT P6SM BKN200 TEMPO 0918/0920 4SM -RA OVC015 FM092000 15005KT P6SM VCSH OVC020 FM100500 VRB02KT P6SM OVC040 WS020/23040KT FM100900 31006KT P6SM BKN035
View NOTAMs / SUP AIP / TFR affecting this airport [VIEW]
Communications frequencies: [VIEW]

Runways:

RWY identifierQFULength (ft)Width (ft)SurfaceLDA (ft)
0973°2150100GRASS
27253°2150100GRASS

Airport contact information

Address: Shoemakersville United States

Satellite view of PN50